Terminal Aerodrome Forecast
Issued by NWS La Crosse, WI

Home | Current Version | Previous Version | Text Only | Print | Product List | Glossary On
Versions: 1 2 3 4 5 6 7 8 9 10 11 12 13 14 15 16 17 18 19 20 21 22 23 24 25 26 27 28 29 30 31 32
000
FTUS43 KARX 152012 AAA
TAFLSE
TAF AMD
KLSE 152012Z 1520/1618 07012G19KT P6SM BKN035
     FM152100 09007KT P6SM VCSH SCT025 BKN040
     FM152300 09008KT P6SM -SHRA VCTS SCT025CB BKN040
     FM160600 09007KT P6SM VCSH BKN025
     FM160900 09007KT P6SM OVC024=

USA.gov is the U.S. government's official web portal to all federal, state and local government web resources and services.